sensor_id;sensor_type;location;lat;lon;timestamp;P1;durP1;ratioP1;P2;durP2;ratioP2
2710;SDS011;20721;47.402;8.550;2022-12-18T00:00:00;41.72;;;40.94;;
2710;SDS011;20721;47.402;8.550;2022-12-18T00:02:00;42.29;;;41.11;;
2710;SDS011;20721;47.402;8.550;2022-12-18T00:03:00;41.37;;;39.94;;
2710;SDS011;20721;47.402;8.550;2022-12-18T00:04:02;40.37;;;39.64;;
2710;SDS011;20721;47.402;8.550;2022-12-18T00:05:00;40.43;;;39.84;;
2710;SDS011;20721;47.402;8.550;2022-12-18T00:06:02;41.13;;;40.61;;
2710;SDS011;20721;47.402;8.550;2022-12-18T00:07:00;40.93;;;40.23;;
2710;SDS011;20721;47.402;8.550;2022-12-18T00:08:00;41.86;;;41.54;;
2710;SDS011;20721;47.402;8.550;2022-12-18T00:10:00;40.14;;;39.72;;
2710;SDS011;20721;47.402;8.550;2022-12-18T00:11:04;41.35;;;40.66;;
2710;SDS011;20721;47.402;8.550;2022-12-18T00:13:00;41.35;;;40.79;;
2710;SDS011;20721;47.402;8.550;2022-12-18T00:14:00;40.09;;;39.57;;
2710;SDS011;20721;47.402;8.550;2022-12-18T00:15:00;41.11;;;40.46;;
2710;SDS011;20721;47.402;8.550;2022-12-18T00:16:01;40.18;;;39.46;;
2710;SDS011;20721;47.402;8.550;2022-12-18T00:17:00;42.29;;;41.20;;
2710;SDS011;20721;47.402;8.550;2022-12-18T00:18:00;40.97;;;40.18;;
2710;SDS011;20721;47.402;8.550;2022-12-18T00:20:00;42.07;;;41.13;;
2710;SDS011;20721;47.402;8.550;2022-12-18T00:21:01;39.88;;;39.03;;
2710;SDS011;20721;47.402;8.550;2022-12-18T00:22:00;39.73;;;39.27;;
2710;SDS011;20721;47.402;8.550;2022-12-18T00:23:00;39.90;;;39.09;;
2710;SDS011;20721;47.402;8.550;2022-12-18T00:24:00;41.56;;;41.08;;
2710;SDS011;20721;47.402;8.550;2022-12-18T00:25:00;40.27;;;39.82;;
2710;SDS011;20721;47.402;8.550;2022-12-18T00:26:01;40.15;;;39.87;;
2710;SDS011;20721;47.402;8.550;2022-12-18T00:27:00;41.02;;;40.44;;
2710;SDS011;20721;47.402;8.550;2022-12-18T00:28:01;39.76;;;39.38;;
2710;SDS011;20721;47.402;8.550;2022-12-18T00:31:11;41.61;;;40.16;;
2710;SDS011;20721;47.402;8.550;2022-12-18T00:32:00;41.61;;;40.16;;
2710;SDS011;20721;47.402;8.550;2022-12-18T00:33:00;43.17;;;42.02;;
2710;SDS011;20721;47.402;8.550;2022-12-18T00:34:06;40.99;;;40.48;;
2710;SDS011;20721;47.402;8.550;2022-12-18T00:36:02;40.34;;;39.59;;
2710;SDS011;20721;47.402;8.550;2022-12-18T00:37:00;41.58;;;41.24;;
2710;SDS011;20721;47.402;8.550;2022-12-18T00:38:00;40.10;;;39.27;;
2710;SDS011;20721;47.402;8.550;2022-12-18T00:39:02;40.12;;;39.53;;
2710;SDS011;20721;47.402;8.550;2022-12-18T00:40:00;41.75;;;41.19;;
2710;SDS011;20721;47.402;8.550;2022-12-18T00:42:10;41.10;;;40.54;;
2710;SDS011;20721;47.402;8.550;2022-12-18T00:43:05;39.63;;;39.29;;
2710;SDS011;20721;47.402;8.550;2022-12-18T00:45:00;44.04;;;43.38;;
2710;SDS011;20721;47.402;8.550;2022-12-18T00:46:00;42.53;;;41.59;;
2710;SDS011;20721;47.402;8.550;2022-12-18T00:47:00;42.35;;;41.39;;
2710;SDS011;20721;47.402;8.550;2022-12-18T00:48:00;42.36;;;41.49;;
2710;SDS011;20721;47.402;8.550;2022-12-18T00:49:02;42.28;;;41.32;;
2710;SDS011;20721;47.402;8.550;2022-12-18T00:50:00;42.20;;;41.45;;
2710;SDS011;20721;47.402;8.550;2022-12-18T00:51:00;42.52;;;41.51;;
2710;SDS011;20721;47.402;8.550;2022-12-18T00:52:00;41.10;;;40.33;;
2710;SDS011;20721;47.402;8.550;2022-12-18T00:53:00;41.76;;;41.06;;
2710;SDS011;20721;47.402;8.550;2022-12-18T00:54:01;42.87;;;41.85;;
2710;SDS011;20721;47.402;8.550;2022-12-18T00:55:00;42.90;;;42.13;;
2710;SDS011;20721;47.402;8.550;2022-12-18T00:56:00;41.97;;;41.28;;
2710;SDS011;20721;47.402;8.550;2022-12-18T00:57:00;43.27;;;42.36;;
2710;SDS011;20721;47.402;8.550;2022-12-18T00:58:01;41.62;;;40.82;;
2710;SDS011;20721;47.402;8.550;2022-12-18T00:59:00;43.09;;;41.89;;
2710;SDS011;20721;47.402;8.550;2022-12-18T01:00:00;42.51;;;41.49;;
2710;SDS011;20721;47.402;8.550;2022-12-18T01:01:00;44.37;;;43.05;;
2710;SDS011;20721;47.402;8.550;2022-12-18T01:02:00;40.75;;;40.70;;
2710;SDS011;20721;47.402;8.550;2022-12-18T01:03:01;41.03;;;40.61;;
2710;SDS011;20721;47.402;8.550;2022-12-18T01:04:01;42.26;;;41.46;;
2710;SDS011;20721;47.402;8.550;2022-12-18T01:05:00;41.85;;;41.15;;
2710;SDS011;20721;47.402;8.550;2022-12-18T01:06:05;42.05;;;41.10;;
2710;SDS011;20721;47.402;8.550;2022-12-18T01:07:00;42.42;;;41.83;;
2710;SDS011;20721;47.402;8.550;2022-12-18T01:08:00;41.77;;;40.90;;
2710;SDS011;20721;47.402;8.550;2022-12-18T01:09:00;40.67;;;40.01;;
2710;SDS011;20721;47.402;8.550;2022-12-18T01:10:00;41.25;;;40.85;;
2710;SDS011;20721;47.402;8.550;2022-12-18T01:11:01;41.54;;;40.88;;
2710;SDS011;20721;47.402;8.550;2022-12-18T01:13:00;41.76;;;41.19;;
2710;SDS011;20721;47.402;8.550;2022-12-18T01:14:01;39.75;;;39.35;;
2710;SDS011;20721;47.402;8.550;2022-12-18T01:16:00;40.35;;;39.52;;
2710;SDS011;20721;47.402;8.550;2022-12-18T01:17:00;41.93;;;41.50;;
2710;SDS011;20721;47.402;8.550;2022-12-18T01:18:01;41.62;;;40.96;;
2710;SDS011;20721;47.402;8.550;2022-12-18T01:19:01;41.66;;;40.95;;
2710;SDS011;20721;47.402;8.550;2022-12-18T01:20:03;41.20;;;40.61;;
2710;SDS011;20721;47.402;8.550;2022-12-18T01:21:00;42.63;;;41.92;;
2710;SDS011;20721;47.402;8.550;2022-12-18T01:22:00;44.39;;;43.57;;
2710;SDS011;20721;47.402;8.550;2022-12-18T01:26:04;41.29;;;40.51;;
2710;SDS011;20721;47.402;8.550;2022-12-18T01:27:00;42.81;;;41.91;;
2710;SDS011;20721;47.402;8.550;2022-12-18T01:29:00;40.55;;;40.05;;
2710;SDS011;20721;47.402;8.550;2022-12-18T01:33:00;41.94;;;41.37;;
2710;SDS011;20721;47.402;8.550;2022-12-18T01:34:01;42.33;;;41.28;;
2710;SDS011;20721;47.402;8.550;2022-12-18T01:35:01;42.41;;;41.34;;
2710;SDS011;20721;47.402;8.550;2022-12-18T01:36:00;42.84;;;41.96;;
2710;SDS011;20721;47.402;8.550;2022-12-18T01:40:02;44.57;;;43.25;;
2710;SDS011;20721;47.402;8.550;2022-12-18T01:41:08;41.35;;;40.67;;
2710;SDS011;20721;47.402;8.550;2022-12-18T01:42:13;42.65;;;41.94;;
2710;SDS011;20721;47.402;8.550;2022-12-18T01:44:01;43.91;;;42.84;;
2710;SDS011;20721;47.402;8.550;2022-12-18T01:47:00;43.73;;;42.77;;
2710;SDS011;20721;47.402;8.550;2022-12-18T01:48:03;42.72;;;41.69;;
2710;SDS011;20721;47.402;8.550;2022-12-18T01:49:02;44.89;;;43.52;;
2710;SDS011;20721;47.402;8.550;2022-12-18T01:51:00;41.64;;;40.83;;
2710;SDS011;20721;47.402;8.550;2022-12-18T01:54:00;43.28;;;42.67;;
2710;SDS011;20721;47.402;8.550;2022-12-18T01:55:02;41.80;;;41.04;;
2710;SDS011;20721;47.402;8.550;2022-12-18T01:56:02;44.32;;;42.98;;
2710;SDS011;20721;47.402;8.550;2022-12-18T01:57:02;44.05;;;43.07;;
2710;SDS011;20721;47.402;8.550;2022-12-18T01:59:07;44.50;;;43.74;;
2710;SDS011;20721;47.402;8.550;2022-12-18T02:00:04;44.50;;;43.74;;
2710;SDS011;20721;47.402;8.550;2022-12-18T02:03:02;42.11;;;41.65;;
2710;SDS011;20721;47.402;8.550;2022-12-18T02:05:00;44.85;;;43.63;;
2710;SDS011;20721;47.402;8.550;2022-12-18T02:07:13;45.54;;;43.94;;
2710;SDS011;20721;47.402;8.550;2022-12-18T02:13:09;42.03;;;41.11;;
2710;SDS011;20721;47.402;8.550;2022-12-18T02:15:15;44.77;;;43.54;;
2710;SDS011;20721;47.402;8.550;2022-12-18T02:17:11;43.31;;;42.70;;
2710;SDS011;20721;47.402;8.550;2022-12-18T02:24:12;43.14;;;42.36;;
2710;SDS011;20721;47.402;8.550;2022-12-18T02:27:04;43.61;;;42.58;;
2710;SDS011;20721;47.402;8.550;2022-12-18T02:28:02;44.70;;;43.76;;
2710;SDS011;20721;47.402;8.550;2022-12-18T02:29:07;43.75;;;42.72;;
2710;SDS011;20721;47.402;8.550;2022-12-18T02:30:09;44.44;;;43.34;;
2710;SDS011;20721;47.402;8.550;2022-12-18T02:31:03;44.44;;;43.34;;
2710;SDS011;20721;47.402;8.550;2022-12-18T02:33:02;44.24;;;43.41;;
2710;SDS011;20721;47.402;8.550;2022-12-18T02:34:04;44.71;;;43.31;;
2710;SDS011;20721;47.402;8.550;2022-12-18T02:35:02;44.65;;;43.78;;
2710;SDS011;20721;47.402;8.550;2022-12-18T02:36:03;43.72;;;42.71;;
2710;SDS011;20721;47.402;8.550;2022-12-18T02:37:02;45.20;;;44.30;;
2710;SDS011;20721;47.402;8.550;2022-12-18T02:38:04;44.72;;;43.82;;
2710;SDS011;20721;47.402;8.550;2022-12-18T02:39:02;47.61;;;45.59;;
2710;SDS011;20721;47.402;8.550;2022-12-18T02:41:03;43.83;;;42.90;;
2710;SDS011;20721;47.402;8.550;2022-12-18T02:42:01;43.87;;;42.87;;
2710;SDS011;20721;47.402;8.550;2022-12-18T02:43:02;43.92;;;42.77;;
2710;SDS011;20721;47.402;8.550;2022-12-18T02:44:11;44.40;;;43.64;;
2710;SDS011;20721;47.402;8.550;2022-12-18T02:47:02;44.92;;;43.94;;
2710;SDS011;20721;47.402;8.550;2022-12-18T02:48:00;44.16;;;43.33;;
2710;SDS011;20721;47.402;8.550;2022-12-18T02:50:08;45.47;;;44.25;;
2710;SDS011;20721;47.402;8.550;2022-12-18T02:51:11;44.47;;;43.83;;
2710;SDS011;20721;47.402;8.550;2022-12-18T02:54:06;43.98;;;43.32;;
2710;SDS011;20721;47.402;8.550;2022-12-18T02:55:10;45.29;;;44.43;;
2710;SDS011;20721;47.402;8.550;2022-12-18T02:58:09;45.08;;;44.30;;
2710;SDS011;20721;47.402;8.550;2022-12-18T02:59:13;45.88;;;44.72;;
2710;SDS011;20721;47.402;8.550;2022-12-18T03:01:13;44.87;;;43.49;;
2710;SDS011;20721;47.402;8.550;2022-12-18T03:03:12;45.43;;;44.05;;
2710;SDS011;20721;47.402;8.550;2022-12-18T03:04:08;45.44;;;44.31;;
2710;SDS011;20721;47.402;8.550;2022-12-18T03:05:13;45.25;;;44.12;;
2710;SDS011;20721;47.402;8.550;2022-12-18T03:06:06;45.25;;;44.12;;
2710;SDS011;20721;47.402;8.550;2022-12-18T03:08:12;46.82;;;45.13;;
2710;SDS011;20721;47.402;8.550;2022-12-18T03:09:06;46.82;;;45.13;;
2710;SDS011;20721;47.402;8.550;2022-12-18T03:10:02;45.83;;;43.96;;
2710;SDS011;20721;47.402;8.550;2022-12-18T03:11:07;44.80;;;43.59;;
2710;SDS011;20721;47.402;8.550;2022-12-18T03:12:16;46.03;;;44.45;;
2710;SDS011;20721;47.402;8.550;2022-12-18T03:14:08;44.92;;;43.43;;
2710;SDS011;20721;47.402;8.550;2022-12-18T03:16:04;48.15;;;46.19;;
2710;SDS011;20721;47.402;8.550;2022-12-18T03:17:05;46.95;;;45.22;;
2710;SDS011;20721;47.402;8.550;2022-12-18T03:18:06;46.84;;;45.28;;
2710;SDS011;20721;47.402;8.550;2022-12-18T03:19:06;47.84;;;45.94;;
2710;SDS011;20721;47.402;8.550;2022-12-18T03:20:10;46.34;;;44.10;;
2710;SDS011;20721;47.402;8.550;2022-12-18T03:21:02;46.34;;;44.10;;
2710;SDS011;20721;47.402;8.550;2022-12-18T03:26:04;43.88;;;42.90;;
2710;SDS011;20721;47.402;8.550;2022-12-18T03:28:02;44.74;;;43.96;;
2710;SDS011;20721;47.402;8.550;2022-12-18T03:29:08;46.67;;;44.59;;
2710;SDS011;20721;47.402;8.550;2022-12-18T03:30:07;45.28;;;44.34;;
2710;SDS011;20721;47.402;8.550;2022-12-18T03:32:05;45.69;;;44.33;;
2710;SDS011;20721;47.402;8.550;2022-12-18T03:35:03;43.05;;;42.01;;
2710;SDS011;20721;47.402;8.550;2022-12-18T03:38:01;46.16;;;45.09;;
2710;SDS011;20721;47.402;8.550;2022-12-18T03:39:01;44.93;;;43.97;;
2710;SDS011;20721;47.402;8.550;2022-12-18T03:40:01;42.45;;;41.84;;
2710;SDS011;20721;47.402;8.550;2022-12-18T03:44:11;44.44;;;43.07;;
2710;SDS011;20721;47.402;8.550;2022-12-18T03:46:15;45.63;;;43.63;;
2710;SDS011;20721;47.402;8.550;2022-12-18T03:47:05;45.63;;;43.63;;
2710;SDS011;20721;47.402;8.550;2022-12-18T03:50:13;44.77;;;43.58;;
2710;SDS011;20721;47.402;8.550;2022-12-18T03:54:07;44.56;;;43.50;;
2710;SDS011;20721;47.402;8.550;2022-12-18T03:55:01;44.56;;;43.50;;
2710;SDS011;20721;47.402;8.550;2022-12-18T03:56:01;47.31;;;45.82;;
2710;SDS011;20721;47.402;8.550;2022-12-18T03:57:10;47.72;;;45.79;;
2710;SDS011;20721;47.402;8.550;2022-12-18T03:58:01;47.72;;;45.79;;
2710;SDS011;20721;47.402;8.550;2022-12-18T03:59:02;48.26;;;46.29;;
2710;SDS011;20721;47.402;8.550;2022-12-18T04:00:06;45.52;;;44.18;;
2710;SDS011;20721;47.402;8.550;2022-12-18T04:02:02;47.12;;;45.53;;
2710;SDS011;20721;47.402;8.550;2022-12-18T04:03:03;44.67;;;43.16;;
2710;SDS011;20721;47.402;8.550;2022-12-18T04:04:02;47.96;;;45.83;;
2710;SDS011;20721;47.402;8.550;2022-12-18T04:06:02;48.78;;;46.31;;
2710;SDS011;20721;47.402;8.550;2022-12-18T04:07:01;45.33;;;43.52;;
2710;SDS011;20721;47.402;8.550;2022-12-18T04:08:01;48.49;;;46.10;;
2710;SDS011;20721;47.402;8.550;2022-12-18T04:09:01;48.92;;;46.43;;
2710;SDS011;20721;47.402;8.550;2022-12-18T04:10:03;46.28;;;43.95;;
2710;SDS011;20721;47.402;8.550;2022-12-18T04:12:01;48.66;;;46.51;;
2710;SDS011;20721;47.402;8.550;2022-12-18T04:13:05;45.63;;;43.92;;
2710;SDS011;20721;47.402;8.550;2022-12-18T04:14:04;45.76;;;44.16;;
2710;SDS011;20721;47.402;8.550;2022-12-18T04:15:01;45.76;;;44.16;;
2710;SDS011;20721;47.402;8.550;2022-12-18T04:16:01;44.81;;;43.25;;
2710;SDS011;20721;47.402;8.550;2022-12-18T04:18:01;47.46;;;45.52;;
2710;SDS011;20721;47.402;8.550;2022-12-18T04:19:01;47.14;;;44.65;;
2710;SDS011;20721;47.402;8.550;2022-12-18T04:20:01;45.84;;;43.91;;
2710;SDS011;20721;47.402;8.550;2022-12-18T04:21:01;47.11;;;45.07;;
2710;SDS011;20721;47.402;8.550;2022-12-18T04:22:01;46.23;;;44.33;;
2710;SDS011;20721;47.402;8.550;2022-12-18T04:23:01;49.40;;;46.82;;
2710;SDS011;20721;47.402;8.550;2022-12-18T04:24:01;47.45;;;45.19;;
2710;SDS011;20721;47.402;8.550;2022-12-18T04:25:04;45.88;;;44.14;;
2710;SDS011;20721;47.402;8.550;2022-12-18T04:27:01;47.28;;;44.50;;
2710;SDS011;20721;47.402;8.550;2022-12-18T04:28:01;46.15;;;44.28;;
2710;SDS011;20721;47.402;8.550;2022-12-18T04:29:01;44.99;;;43.49;;
2710;SDS011;20721;47.402;8.550;2022-12-18T04:30:01;44.97;;;43.37;;
2710;SDS011;20721;47.402;8.550;2022-12-18T04:31:03;46.88;;;44.58;;
2710;SDS011;20721;47.402;8.550;2022-12-18T04:32:01;47.45;;;45.28;;
2710;SDS011;20721;47.402;8.550;2022-12-18T04:33:02;46.00;;;44.21;;
2710;SDS011;20721;47.402;8.550;2022-12-18T04:34:01;44.89;;;43.00;;
2710;SDS011;20721;47.402;8.550;2022-12-18T04:35:01;46.90;;;44.77;;
2710;SDS011;20721;47.402;8.550;2022-12-18T04:36:01;45.92;;;44.06;;
2710;SDS011;20721;47.402;8.550;2022-12-18T04:37:01;46.37;;;44.72;;
2710;SDS011;20721;47.402;8.550;2022-12-18T04:38:01;45.63;;;44.01;;
2710;SDS011;20721;47.402;8.550;2022-12-18T04:39:01;48.86;;;45.90;;
2710;SDS011;20721;47.402;8.550;2022-12-18T04:40:01;47.76;;;45.19;;
2710;SDS011;20721;47.402;8.550;2022-12-18T04:41:01;47.54;;;44.87;;
2710;SDS011;20721;47.402;8.550;2022-12-18T04:42:01;47.13;;;44.66;;
2710;SDS011;20721;47.402;8.550;2022-12-18T04:43:01;47.82;;;44.78;;
2710;SDS011;20721;47.402;8.550;2022-12-18T04:44:01;44.96;;;42.88;;
2710;SDS011;20721;47.402;8.550;2022-12-18T04:45:01;47.43;;;45.30;;
2710;SDS011;20721;47.402;8.550;2022-12-18T04:46:08;48.00;;;45.60;;
2710;SDS011;20721;47.402;8.550;2022-12-18T04:49:01;48.57;;;45.30;;
2710;SDS011;20721;47.402;8.550;2022-12-18T04:50:01;47.61;;;45.01;;
2710;SDS011;20721;47.402;8.550;2022-12-18T04:51:01;44.83;;;43.47;;
2710;SDS011;20721;47.402;8.550;2022-12-18T04:52:01;45.86;;;43.81;;
2710;SDS011;20721;47.402;8.550;2022-12-18T04:55:01;44.18;;;41.52;;
2710;SDS011;20721;47.402;8.550;2022-12-18T04:56:04;46.83;;;43.08;;
2710;SDS011;20721;47.402;8.550;2022-12-18T04:57:01;47.60;;;44.13;;
2710;SDS011;20721;47.402;8.550;2022-12-18T04:58:01;45.67;;;42.29;;
2710;SDS011;20721;47.402;8.550;2022-12-18T05:00:01;45.08;;;42.12;;
2710;SDS011;20721;47.402;8.550;2022-12-18T05:01:01;46.48;;;42.88;;
2710;SDS011;20721;47.402;8.550;2022-12-18T05:02:04;43.83;;;40.91;;
2710;SDS011;20721;47.402;8.550;2022-12-18T05:03:01;47.74;;;44.52;;
2710;SDS011;20721;47.402;8.550;2022-12-18T05:04:01;45.71;;;43.01;;
2710;SDS011;20721;47.402;8.550;2022-12-18T05:05:01;44.92;;;42.38;;
2710;SDS011;20721;47.402;8.550;2022-12-18T05:06:01;45.32;;;42.61;;
2710;SDS011;20721;47.402;8.550;2022-12-18T05:07:01;43.83;;;41.77;;
2710;SDS011;20721;47.402;8.550;2022-12-18T05:08:04;46.45;;;43.57;;
2710;SDS011;20721;47.402;8.550;2022-12-18T05:09:01;48.36;;;44.68;;
2710;SDS011;20721;47.402;8.550;2022-12-18T05:10:01;45.39;;;42.92;;
2710;SDS011;20721;47.402;8.550;2022-12-18T05:11:09;46.01;;;43.57;;
2710;SDS011;20721;47.402;8.550;2022-12-18T05:13:08;47.12;;;44.29;;
2710;SDS011;20721;47.402;8.550;2022-12-18T05:14:01;47.12;;;44.29;;
2710;SDS011;20721;47.402;8.550;2022-12-18T05:15:01;48.08;;;45.02;;
2710;SDS011;20721;47.402;8.550;2022-12-18T05:16:02;44.70;;;42.69;;
2710;SDS011;20721;47.402;8.550;2022-12-18T05:17:01;45.87;;;43.60;;
2710;SDS011;20721;47.402;8.550;2022-12-18T05:18:01;46.35;;;43.52;;
2710;SDS011;20721;47.402;8.550;2022-12-18T05:19:01;48.46;;;45.26;;
2710;SDS011;20721;47.402;8.550;2022-12-18T05:20:01;47.26;;;44.78;;
2710;SDS011;20721;47.402;8.550;2022-12-18T05:21:02;47.21;;;44.85;;
2710;SDS011;20721;47.402;8.550;2022-12-18T05:22:01;44.80;;;43.05;;
2710;SDS011;20721;47.402;8.550;2022-12-18T05:23:01;46.89;;;44.23;;
2710;SDS011;20721;47.402;8.550;2022-12-18T05:24:01;48.24;;;44.93;;
2710;SDS011;20721;47.402;8.550;2022-12-18T05:25:01;49.66;;;46.08;;
2710;SDS011;20721;47.402;8.550;2022-12-18T05:26:03;48.19;;;45.60;;
2710;SDS011;20721;47.402;8.550;2022-12-18T05:28:01;51.83;;;47.74;;
2710;SDS011;20721;47.402;8.550;2022-12-18T05:29:01;47.04;;;43.83;;
2710;SDS011;20721;47.402;8.550;2022-12-18T05:30:01;47.73;;;44.51;;
2710;SDS011;20721;47.402;8.550;2022-12-18T05:31:02;50.97;;;46.85;;
2710;SDS011;20721;47.402;8.550;2022-12-18T05:32:01;46.41;;;43.67;;
2710;SDS011;20721;47.402;8.550;2022-12-18T05:35:01;48.95;;;45.36;;
2710;SDS011;20721;47.402;8.550;2022-12-18T05:37:01;48.63;;;45.50;;
2710;SDS011;20721;47.402;8.550;2022-12-18T05:38:01;45.05;;;42.79;;
2710;SDS011;20721;47.402;8.550;2022-12-18T05:39:04;47.68;;;45.25;;
2710;SDS011;20721;47.402;8.550;2022-12-18T05:40:02;46.48;;;44.30;;
2710;SDS011;20721;47.402;8.550;2022-12-18T05:41:02;48.17;;;44.80;;
2710;SDS011;20721;47.402;8.550;2022-12-18T05:42:01;44.74;;;42.76;;
2710;SDS011;20721;47.402;8.550;2022-12-18T05:43:01;45.77;;;44.06;;
2710;SDS011;20721;47.402;8.550;2022-12-18T05:44:01;48.54;;;45.13;;
2710;SDS011;20721;47.402;8.550;2022-12-18T05:45:04;48.49;;;45.30;;
2710;SDS011;20721;47.402;8.550;2022-12-18T05:46:03;47.31;;;44.18;;
2710;SDS011;20721;47.402;8.550;2022-12-18T05:47:01;49.14;;;45.49;;
2710;SDS011;20721;47.402;8.550;2022-12-18T05:48:01;50.97;;;46.50;;
2710;SDS011;20721;47.402;8.550;2022-12-18T05:49:01;46.18;;;43.23;;
2710;SDS011;20721;47.402;8.550;2022-12-18T05:50:01;49.33;;;46.13;;
2710;SDS011;20721;47.402;8.550;2022-12-18T05:51:05;50.48;;;46.00;;
2710;SDS011;20721;47.402;8.550;2022-12-18T05:52:01;48.99;;;45.13;;
2710;SDS011;20721;47.402;8.550;2022-12-18T05:53:01;47.67;;;44.77;;
2710;SDS011;20721;47.402;8.550;2022-12-18T05:54:01;46.58;;;43.84;;
2710;SDS011;20721;47.402;8.550;2022-12-18T05:55:01;45.99;;;43.73;;
2710;SDS011;20721;47.402;8.550;2022-12-18T05:56:02;47.36;;;44.01;;
2710;SDS011;20721;47.402;8.550;2022-12-18T05:57:01;47.91;;;45.28;;
2710;SDS011;20721;47.402;8.550;2022-12-18T05:59:02;49.90;;;45.95;;
2710;SDS011;20721;47.402;8.550;2022-12-18T06:00:01;46.85;;;43.32;;
2710;SDS011;20721;47.402;8.550;2022-12-18T06:01:09;47.16;;;44.08;;
2710;SDS011;20721;47.402;8.550;2022-12-18T06:02:01;47.32;;;43.88;;
2710;SDS011;20721;47.402;8.550;2022-12-18T06:03:01;48.42;;;44.64;;
2710;SDS011;20721;47.402;8.550;2022-12-18T06:04:01;52.44;;;47.27;;
2710;SDS011;20721;47.402;8.550;2022-12-18T06:05:01;47.59;;;44.09;;
2710;SDS011;20721;47.402;8.550;2022-12-18T06:06:01;46.66;;;43.88;;
2710;SDS011;20721;47.402;8.550;2022-12-18T06:07:01;50.65;;;47.07;;
2710;SDS011;20721;47.402;8.550;2022-12-18T06:08:01;48.13;;;44.33;;
2710;SDS011;20721;47.402;8.550;2022-12-18T06:09:01;46.52;;;43.93;;
2710;SDS011;20721;47.402;8.550;2022-12-18T06:10:01;51.23;;;45.87;;
2710;SDS011;20721;47.402;8.550;2022-12-18T06:11:02;48.33;;;44.84;;
2710;SDS011;20721;47.402;8.550;2022-12-18T06:12:01;48.73;;;45.53;;
2710;SDS011;20721;47.402;8.550;2022-12-18T06:13:01;47.47;;;44.13;;
2710;SDS011;20721;47.402;8.550;2022-12-18T06:14:08;44.88;;;43.05;;
2710;SDS011;20721;47.402;8.550;2022-12-18T06:15:01;44.88;;;43.05;;
2710;SDS011;20721;47.402;8.550;2022-12-18T06:16:05;47.97;;;44.74;;
2710;SDS011;20721;47.402;8.550;2022-12-18T06:17:02;47.07;;;44.12;;
2710;SDS011;20721;47.402;8.550;2022-12-18T06:18:01;47.16;;;44.15;;
2710;SDS011;20721;47.402;8.550;2022-12-18T06:19:02;50.11;;;45.48;;
2710;SDS011;20721;47.402;8.550;2022-12-18T06:20:01;48.74;;;45.21;;
2710;SDS011;20721;47.402;8.550;2022-12-18T06:21:08;49.16;;;45.35;;
2710;SDS011;20721;47.402;8.550;2022-12-18T06:22:04;49.16;;;45.35;;
2710;SDS011;20721;47.402;8.550;2022-12-18T06:23:01;46.02;;;43.18;;
2710;SDS011;20721;47.402;8.550;2022-12-18T06:24:01;46.11;;;43.29;;
2710;SDS011;20721;47.402;8.550;2022-12-18T06:25:01;43.74;;;40.99;;
2710;SDS011;20721;47.402;8.550;2022-12-18T06:26:05;43.81;;;41.12;;
2710;SDS011;20721;47.402;8.550;2022-12-18T06:27:01;45.36;;;43.35;;
2710;SDS011;20721;47.402;8.550;2022-12-18T06:28:01;46.04;;;43.10;;
2710;SDS011;20721;47.402;8.550;2022-12-18T06:29:01;43.33;;;41.10;;
2710;SDS011;20721;47.402;8.550;2022-12-18T06:30:01;43.98;;;41.68;;
2710;SDS011;20721;47.402;8.550;2022-12-18T06:31:02;46.44;;;43.27;;
2710;SDS011;20721;47.402;8.550;2022-12-18T06:32:01;45.78;;;43.25;;
2710;SDS011;20721;47.402;8.550;2022-12-18T06:33:07;48.36;;;44.43;;
2710;SDS011;20721;47.402;8.550;2022-12-18T06:34:02;48.36;;;44.43;;
2710;SDS011;20721;47.402;8.550;2022-12-18T06:35:01;46.10;;;43.05;;
2710;SDS011;20721;47.402;8.550;2022-12-18T06:36:03;45.94;;;43.18;;
2710;SDS011;20721;47.402;8.550;2022-12-18T06:37:01;44.48;;;41.91;;
2710;SDS011;20721;47.402;8.550;2022-12-18T06:38:02;45.43;;;42.57;;
2710;SDS011;20721;47.402;8.550;2022-12-18T06:39:01;46.10;;;42.64;;
2710;SDS011;20721;47.402;8.550;2022-12-18T06:40:01;47.89;;;44.18;;
2710;SDS011;20721;47.402;8.550;2022-12-18T06:41:05;47.15;;;43.63;;
2710;SDS011;20721;47.402;8.550;2022-12-18T06:42:01;48.50;;;44.17;;
2710;SDS011;20721;47.402;8.550;2022-12-18T06:43:01;46.75;;;43.56;;
2710;SDS011;20721;47.402;8.550;2022-12-18T06:44:04;47.76;;;44.28;;
2710;SDS011;20721;47.402;8.550;2022-12-18T06:45:01;45.11;;;41.76;;
2710;SDS011;20721;47.402;8.550;2022-12-18T06:46:07;45.58;;;41.37;;
2710;SDS011;20721;47.402;8.550;2022-12-18T06:47:01;45.58;;;41.37;;
2710;SDS011;20721;47.402;8.550;2022-12-18T06:48:01;46.51;;;42.62;;
2710;SDS011;20721;47.402;8.550;2022-12-18T06:49:01;46.49;;;43.06;;
2710;SDS011;20721;47.402;8.550;2022-12-18T06:50:01;45.33;;;41.35;;
2710;SDS011;20721;47.402;8.550;2022-12-18T06:51:01;47.11;;;43.24;;
2710;SDS011;20721;47.402;8.550;2022-12-18T06:52:02;44.39;;;41.50;;
2710;SDS011;20721;47.402;8.550;2022-12-18T06:53:04;44.93;;;42.29;;
2710;SDS011;20721;47.402;8.550;2022-12-18T06:54:01;44.59;;;41.77;;
2710;SDS011;20721;47.402;8.550;2022-12-18T06:55:01;45.84;;;43.07;;
2710;SDS011;20721;47.402;8.550;2022-12-18T06:56:02;47.66;;;43.79;;
2710;SDS011;20721;47.402;8.550;2022-12-18T06:58:01;46.59;;;42.48;;
2710;SDS011;20721;47.402;8.550;2022-12-18T06:59:04;44.85;;;41.45;;
2710;SDS011;20721;47.402;8.550;2022-12-18T07:00:01;48.14;;;43.88;;
2710;SDS011;20721;47.402;8.550;2022-12-18T07:01:02;45.03;;;42.05;;
2710;SDS011;20721;47.402;8.550;2022-12-18T07:02:01;44.63;;;41.34;;
2710;SDS011;20721;47.402;8.550;2022-12-18T07:03:01;44.91;;;41.63;;
2710;SDS011;20721;47.402;8.550;2022-12-18T07:04:02;44.97;;;41.55;;
2710;SDS011;20721;47.402;8.550;2022-12-18T07:05:01;46.33;;;41.91;;
2710;SDS011;20721;47.402;8.550;2022-12-18T07:06:01;45.19;;;41.18;;
2710;SDS011;20721;47.402;8.550;2022-12-18T07:08:01;46.01;;;41.95;;
2710;SDS011;20721;47.402;8.550;2022-12-18T07:09:02;46.91;;;42.15;;
2710;SDS011;20721;47.402;8.550;2022-12-18T07:11:06;47.60;;;43.18;;
2710;SDS011;20721;47.402;8.550;2022-12-18T07:12:01;47.60;;;43.18;;
2710;SDS011;20721;47.402;8.550;2022-12-18T07:13:01;48.42;;;43.30;;
2710;SDS011;20721;47.402;8.550;2022-12-18T07:14:01;45.03;;;42.00;;
2710;SDS011;20721;47.402;8.550;2022-12-18T07:15:01;46.36;;;42.34;;
2710;SDS011;20721;47.402;8.550;2022-12-18T07:16:03;46.52;;;42.86;;
2710;SDS011;20721;47.402;8.550;2022-12-18T07:17:01;43.96;;;41.04;;
2710;SDS011;20721;47.402;8.550;2022-12-18T07:18:01;44.42;;;40.76;;
2710;SDS011;20721;47.402;8.550;2022-12-18T07:19:02;46.48;;;42.14;;
2710;SDS011;20721;47.402;8.550;2022-12-18T07:20:01;46.37;;;42.04;;
2710;SDS011;20721;47.402;8.550;2022-12-18T07:21:03;45.00;;;41.38;;
2710;SDS011;20721;47.402;8.550;2022-12-18T07:22:01;46.18;;;42.28;;
2710;SDS011;20721;47.402;8.550;2022-12-18T07:23:06;45.70;;;42.30;;
2710;SDS011;20721;47.402;8.550;2022-12-18T07:24:01;45.70;;;42.30;;
2710;SDS011;20721;47.402;8.550;2022-12-18T07:25:01;44.88;;;41.22;;
2710;SDS011;20721;47.402;8.550;2022-12-18T07:26:02;43.21;;;40.20;;
2710;SDS011;20721;47.402;8.550;2022-12-18T07:27:01;44.64;;;41.65;;
2710;SDS011;20721;47.402;8.550;2022-12-18T07:28:01;44.58;;;41.42;;
2710;SDS011;20721;47.402;8.550;2022-12-18T07:29:04;45.13;;;42.00;;
2710;SDS011;20721;47.402;8.550;2022-12-18T07:30:05;40.81;;;38.51;;
2710;SDS011;20721;47.402;8.550;2022-12-18T07:31:03;46.34;;;42.69;;
2710;SDS011;20721;47.402;8.550;2022-12-18T07:32:01;45.37;;;41.49;;
2710;SDS011;20721;47.402;8.550;2022-12-18T07:33:01;42.33;;;39.39;;
2710;SDS011;20721;47.402;8.550;2022-12-18T07:34:01;44.52;;;41.24;;